York, NE

10:08 AM CST on December 06, 2019 (GMT -0600)
York Municipal

Weather History for KJYR - October, 2019

Change the Weather History Date:

Thursday, October 10, 2019

  Actual Average Record
Temperature  
Mean Temperature 46 °F -  
Max Temperature 59 °F 67 °F 90 °F (1963)
Min Temperature 33 °F 40 °F 26 °F (2012)
Degree Days  
Heating Degree Days 19    
Moisture  
Dew Point 41 °F    
Average Humidity 93    
Maximum Humidity 100    
Minimum Humidity 81    
Precipitation  
Precipitation 0.42 in - - ()
Sea Level Pressure  
Sea Level Pressure 29.88 in    
Wind  
Wind Speed 15 mph (North)    
Max Wind Speed 25 mph    
Max Gust Speed 32 mph    
Visibility 6 miles    
Events Rain , Thunderstorm    
Averages and records for this station are not official NWS values.
T = Trace of Precipitation, MM = Missing Value Source: NWS Daily Summary

Daily Weather History Graph

Daily Weather History Graph

Search for Another Location

Airport or City:

Astronomy

Oct. 10, 2019 Rise Set
Actual Time 7:36 AM CDT 6:58 PM CDT
Civil Twilight 7:08 AM CDT 7:25 PM CDT
Nautical Twilight 6:36 AM CDT 7:57 PM CDT
Astronomical Twilight 6:05 AM CDT 8:29 PM CDT
Moon 6:02 PM CDT (10/10) 4:19 AM CDT (10/10)
Length of Visible Light 12h 16m
Length of Day
11h 21m
Waxing Gibbous, 91% of the Moon is Illuminated
Oct 10
Waxing Gibbous
Oct 13
Full
Oct 21
Last Quarter
Oct 27
New
Nov 4
First Quarter

Hourly Weather History & Observations

Time (CDT) Temp. Windchill Dew Point Humidity Pressure Visibility Wind Dir Wind Speed Gust Speed Precip Events Conditions
12:15 AM 59.0 °F - 57.2 °F 94% 29.78 in 9.0 mi ESE 8.1 mph - N/A Rain , Thunderstorm Light Rain
12:35 AM 59.0 °F - 57.2 °F 94% 29.76 in 7.0 mi ESE 13.8 mph - N/A Rain , Thunderstorm Light Rain
12:55 AM 59.0 °F - 57.2 °F 94% 29.74 in 5.0 mi ESE 12.7 mph - 0.01 in Rain , Thunderstorm Light Thunderstorms and Rain
1:15 AM 57.2 °F - 57.2 °F 100% 29.78 in 7.0 mi NNW 19.6 mph 26.5 mph 0.01 in Rain , Thunderstorm Light Rain
1:35 AM 55.4 °F - 55.4 °F 100% 29.77 in 3.0 mi North 8.1 mph 20.7 mph 0.15 in Rain , Thunderstorm Rain
1:55 AM 55.4 °F - 53.6 °F 94% 29.76 in 3.0 mi NE 9.2 mph 19.6 mph 0.27 in Rain , Thunderstorm Light Rain
2:15 AM 55.4 °F - 55.4 °F 100% 29.76 in 4.0 mi NE 9.2 mph - 0.07 in Rain , Thunderstorm Light Rain
2:35 AM 55.4 °F - 55.4 °F 100% 29.75 in 2.5 mi NE 11.5 mph - 0.08 in Rain , Thunderstorm Rain
2:55 AM 55.4 °F - 55.4 °F 100% 29.74 in 2.5 mi ENE 15.0 mph - 0.10 in Rain Light Rain
3:15 AM 57.2 °F - 55.4 °F 94% 29.73 in 4.0 mi East 17.3 mph 23.0 mph 0.01 in Rain Light Rain
3:35 AM 55.4 °F - 55.4 °F 100% 29.74 in 9.0 mi East 17.3 mph - 0.01 in   Overcast
3:55 AM 55.4 °F - 55.4 °F 100% 29.74 in 6.0 mi East 15.0 mph 20.7 mph 0.01 in   Overcast
4:15 AM 55.4 °F - 55.4 °F 100% 29.72 in 9.0 mi East 15.0 mph - N/A   Overcast
4:35 AM 55.4 °F - 55.4 °F 100% 29.72 in 10.0 mi East 11.5 mph 17.3 mph N/A   Overcast
4:55 AM 55.4 °F - 55.4 °F 100% 29.72 in 10.0 mi East 11.5 mph - N/A   Overcast
5:15 AM 55.4 °F - 55.4 °F 100% 29.74 in 10.0 mi NNE 8.1 mph - N/A   Overcast
5:35 AM 53.6 °F - 53.6 °F 100% 29.75 in 9.0 mi NNW 8.1 mph - N/A   Overcast
5:55 AM 50.0 °F - 50.0 °F 100% 29.76 in 3.0 mi North 9.2 mph 16.1 mph N/A Rain Light Rain
6:15 AM 50.0 °F - 50.0 °F 100% 29.76 in 4.0 mi North 10.4 mph 18.4 mph 0.01 in Rain Light Rain
6:35 AM 50.0 °F - 50.0 °F 100% 29.76 in 6.0 mi North 12.7 mph - 0.01 in Rain Light Rain
6:55 AM 50.0 °F - 48.2 °F 94% 29.77 in 8.0 mi North 13.8 mph 20.7 mph 0.01 in Rain Light Rain
7:15 AM 48.2 °F - 46.4 °F 93% 29.78 in 9.0 mi North 16.1 mph 25.3 mph N/A Rain Light Rain
7:35 AM 46.4 °F 39.8 °F 44.6 °F 93% 29.78 in 5.0 mi North 16.1 mph 23.0 mph 0.01 in Rain Light Rain
7:55 AM 44.6 °F 36.9 °F 44.6 °F 100% 29.80 in 3.0 mi North 18.4 mph 32.2 mph 0.01 in Rain Light Rain
8:15 AM 44.6 °F 37.8 °F 44.6 °F 100% 29.81 in 2.0 mi NNW 15.0 mph 18.4 mph N/A Rain Light Rain
8:35 AM 44.6 °F 37.8 °F 42.8 °F 93% 29.82 in 1.2 mi North 15.0 mph 25.3 mph 0.01 in Rain Rain
8:55 AM 42.8 °F 35.4 °F 41.0 °F 93% 29.83 in 2.0 mi North 15.0 mph 24.2 mph 0.01 in Rain Light Rain
9:15 AM 41.0 °F 33.1 °F 41.0 °F 100% 29.83 in 1.8 mi North 15.0 mph 19.6 mph N/A Rain Light Rain
9:35 AM 41.0 °F 33.1 °F 39.2 °F 93% 29.84 in 2.0 mi North 15.0 mph 21.9 mph N/A Rain Light Rain
9:55 AM 41.0 °F 33.1 °F 39.2 °F 93% 29.85 in 2.5 mi North 15.0 mph 26.5 mph N/A Rain Light Rain
10:15 AM 39.2 °F 29.8 °F 39.2 °F 100% 29.86 in 3.0 mi North 18.4 mph 24.2 mph N/A Rain Light Rain
10:35 AM 39.2 °F 30.5 °F 39.2 °F 100% 29.87 in 2.5 mi North 16.1 mph 21.9 mph N/A Rain Light Rain
10:55 AM 39.2 °F 30.2 °F 39.2 °F 100% 29.87 in 2.0 mi North 17.3 mph 25.3 mph N/A Rain Light Rain
11:15 AM 39.2 °F 31.6 °F 37.4 °F 93% 29.87 in 2.0 mi North 12.7 mph 20.7 mph N/A Rain Light Rain
11:35 AM 39.2 °F 31.2 °F 37.4 °F 93% 29.88 in 2.5 mi North 13.8 mph 27.6 mph N/A Rain Light Rain
11:55 AM 39.2 °F 31.6 °F 37.4 °F 93% 29.88 in 1.8 mi NNW 12.7 mph 25.3 mph N/A Rain Light Rain
12:15 PM 39.2 °F 30.5 °F 37.4 °F 93% 29.88 in 4.0 mi NNW 16.1 mph 26.5 mph N/A   Clear
12:35 PM 37.4 °F 27.8 °F 37.4 °F 100% 29.89 in 2.0 mi NNW 17.3 mph 26.5 mph N/A Rain Light Rain
12:55 PM 37.4 °F 26.9 °F 37.4 °F 100% 29.89 in 3.0 mi NNW 20.7 mph 29.9 mph N/A   Clear
1:15 PM 37.4 °F 26.9 °F 35.6 °F 93% 29.89 in 6.0 mi NNW 20.7 mph 29.9 mph N/A   Scattered Clouds
1:35 PM 37.4 °F 27.5 °F 35.6 °F 93% 29.89 in 4.0 mi NNW 18.4 mph 29.9 mph N/A   Mostly Cloudy
1:55 PM 37.4 °F 28.9 °F 35.6 °F 93% 29.89 in 5.0 mi NNW 13.8 mph 26.5 mph N/A   Mostly Cloudy
2:15 PM 37.4 °F 27.8 °F 35.6 °F 93% 29.89 in 2.5 mi NNW 17.3 mph 32.2 mph N/A Rain Light Rain
2:35 PM 37.4 °F 26.4 °F 35.6 °F 93% 29.88 in 2.5 mi NNW 23.0 mph 29.9 mph N/A Rain Light Rain
2:55 PM 37.4 °F 27.2 °F 35.6 °F 93% 29.89 in 7.0 mi NNW 19.6 mph 29.9 mph N/A   Partly Cloudy
3:15 PM 37.4 °F 28.9 °F 35.6 °F 93% 29.90 in 6.0 mi NNW 13.8 mph 25.3 mph N/A Rain Light Rain
3:35 PM 37.4 °F 27.8 °F 35.6 °F 93% 29.91 in 9.0 mi NNW 17.3 mph 26.5 mph N/A   Mostly Cloudy
3:55 PM 37.4 °F 27.8 °F 35.6 °F 93% 29.91 in 10.0 mi NNW 17.3 mph 28.8 mph N/A   Mostly Cloudy
4:15 PM 37.4 °F 27.5 °F 35.6 °F 93% 29.93 in 7.0 mi NNW 18.4 mph 29.9 mph N/A Rain Light Rain
4:35 PM 37.4 °F 26.6 °F 35.6 °F 93% 29.94 in 5.0 mi NNW 21.9 mph 28.8 mph N/A Rain Light Rain
4:55 PM 35.6 °F 25.2 °F 35.6 °F 100% 29.95 in 8.0 mi NNW 18.4 mph 28.8 mph N/A   Mostly Cloudy
5:15 PM 37.4 °F 26.9 °F 33.8 °F 87% 29.95 in 10.0 mi NW 20.7 mph 28.8 mph N/A   Overcast
5:35 PM 35.6 °F 25.9 °F 32.0 °F 87% 29.97 in 10.0 mi NNW 16.1 mph 29.9 mph N/A   Overcast
5:55 PM 35.6 °F 24.5 °F 32.0 °F 87% 29.97 in 10.0 mi NNW 20.7 mph 29.9 mph N/A   Overcast
6:15 PM 35.6 °F 26.2 °F 32.0 °F 87% 29.98 in 10.0 mi NNW 15.0 mph 31.1 mph N/A   Overcast
6:35 PM 35.6 °F 25.2 °F 32.0 °F 87% 29.99 in 10.0 mi NW 18.4 mph 28.8 mph N/A   Overcast
6:55 PM 35.6 °F 23.4 °F 32.0 °F 87% 30.01 in 10.0 mi NW 25.3 mph 32.2 mph N/A   Overcast
7:15 PM 35.6 °F 24.8 °F 32.0 °F 87% 30.01 in 10.0 mi NNW 19.6 mph 29.9 mph N/A   Overcast
7:35 PM 35.6 °F 24.5 °F 32.0 °F 87% 30.02 in 10.0 mi NNW 20.7 mph 28.8 mph N/A   Overcast
7:55 PM 35.6 °F 24.8 °F 32.0 °F 87% 30.02 in 10.0 mi NNW 19.6 mph 26.5 mph N/A   Overcast
8:15 PM 35.6 °F 25.5 °F 30.2 °F 81% 30.03 in 10.0 mi NNW 17.3 mph 24.2 mph N/A   Overcast
8:35 PM 35.6 °F 25.2 °F 30.2 °F 81% 30.04 in 10.0 mi NNW 18.4 mph 28.8 mph N/A   Overcast
8:55 PM 35.6 °F 24.5 °F 30.2 °F 81% 30.05 in 10.0 mi NW 20.7 mph 27.6 mph N/A   Overcast
9:15 PM 35.6 °F 24.0 °F 30.2 °F 81% 30.06 in 10.0 mi NW 23.0 mph 31.1 mph N/A   Overcast
9:35 PM 35.6 °F 24.8 °F 30.2 °F 81% 30.07 in 10.0 mi NW 19.6 mph 28.8 mph N/A   Overcast
9:55 PM 35.6 °F 24.8 °F 30.2 °F 81% 30.08 in 10.0 mi NW 19.6 mph 24.2 mph N/A   Overcast
10:15 PM 33.8 °F 22.8 °F 28.4 °F 81% 30.08 in 10.0 mi NW 18.4 mph 25.3 mph N/A   Overcast
10:35 PM 33.8 °F 22.8 °F 28.4 °F 81% 30.09 in 10.0 mi NW 18.4 mph 24.2 mph N/A   Overcast
10:55 PM 33.8 °F 22.5 °F 28.4 °F 81% 30.10 in 10.0 mi NW 19.6 mph 29.9 mph N/A   Overcast
11:15 PM 33.8 °F 22.5 °F 28.4 °F 81% 30.12 in 10.0 mi NW 19.6 mph 26.5 mph N/A   Overcast
11:35 PM 33.8 °F 22.8 °F 28.4 °F 81% 30.12 in 10.0 mi NW 18.4 mph 26.5 mph N/A   Overcast
11:55 PM 33.8 °F 22.8 °F 28.4 °F 81% 30.11 in 10.0 mi NW 18.4 mph 24.2 mph N/A   Overcast